Time;durP1;ratioP1;P1;durP2;ratioP2;P2;SDS_P1;SDS_P2;PMS_P1;PMS_P2;Temp;Humidity;BMP_temperature;BMP_pressure;BME280_temperature;BME280_humidity;BME280_pressure;Samples;Min_cycle;Max_cycle;Signal;HPM_P1;HPM_P2
2021/07/18 00:01:59;;;;;;;12.70;4.00;;;;;;;15.38;100.00;102494.41;5223187;28;20059;-80
2021/07/18 00:04:30;;;;;;;8.10;3.35;;;;;;;15.34;100.00;102490.31;5211672;28;20039;-80
2021/07/18 00:07:00;;;;;;;8.98;3.53;;;;;;;15.33;100.00;102488.63;5213530;28;20021;-80
2021/07/18 00:09:31;;;;;;;9.30;3.58;;;;;;;15.34;100.00;102487.63;5219537;28;20033;-80
2021/07/18 00:12:02;;;;;;;13.18;3.72;;;;;;;15.29;100.00;102484.53;5222187;28;20026;-80
2021/07/18 00:14:32;;;;;;;5.80;3.67;;;;;;;15.26;100.00;102488.41;5219350;28;20025;-80
2021/07/18 00:17:03;;;;;;;7.18;3.30;;;;;;;15.22;100.00;102480.78;5216123;28;20502;-80
2021/07/18 00:19:33;;;;;;;5.90;3.63;;;;;;;15.13;100.00;102490.66;5216998;28;20041;-80
2021/07/18 00:22:05;;;;;;;7.15;4.07;;;;;;;15.06;100.00;102495.00;5222405;28;20116;-80
2021/07/18 00:24:36;;;;;;;12.25;3.75;;;;;;;14.98;100.00;102484.13;5221017;28;20032;-80
2021/07/18 00:27:07;;;;;;;8.70;3.92;;;;;;;14.91;100.00;102491.13;5216460;28;20120;-80
2021/07/18 00:29:37;;;;;;;15.60;4.35;;;;;;;14.81;100.00;102493.06;5214866;28;20499;-80
2021/07/18 00:32:08;;;;;;;7.97;3.65;;;;;;;14.69;100.00;102500.56;5221463;28;20044;-80
2021/07/18 00:34:38;;;;;;;7.80;3.63;;;;;;;14.58;100.00;102493.53;5204044;28;20079;-80
2021/07/18 00:37:08;;;;;;;11.25;4.28;;;;;;;14.49;100.00;102495.28;5217706;28;20390;-80
2021/07/18 00:39:39;;;;;;;8.15;4.50;;;;;;;14.41;100.00;102494.31;5214689;28;20093;-80
2021/07/18 00:42:09;;;;;;;11.27;4.07;;;;;;;14.33;100.00;102491.53;5219103;28;20430;-80
2021/07/18 00:44:40;;;;;;;8.90;4.35;;;;;;;14.24;100.00;102488.72;5221852;28;20100;-80
2021/07/18 00:47:10;;;;;;;6.63;4.30;;;;;;;14.16;100.00;102488.63;5202902;28;20048;-80
2021/07/18 00:49:42;;;;;;;8.88;4.32;;;;;;;14.10;100.00;102494.59;5196475;28;20029;-80
2021/07/18 00:52:13;;;;;;;6.57;3.80;;;;;;;14.07;100.00;102502.16;5216440;28;20049;-80
2021/07/18 00:54:43;;;;;;;7.90;3.80;;;;;;;14.00;100.00;102496.50;5221150;28;20486;-80
2021/07/18 00:57:14;;;;;;;7.90;3.90;;;;;;;13.94;100.00;102495.25;5193710;28;20083;-80
2021/07/18 00:59:44;;;;;;;8.77;4.55;;;;;;;13.89;100.00;102500.22;5219942;28;20052;-80
2021/07/18 01:02:16;;;;;;;12.50;5.25;;;;;;;13.86;100.00;102497.84;5221634;28;20483;-80
2021/07/18 01:04:48;;;;;;;8.18;4.97;;;;;;;13.83;100.00;102492.75;5218007;28;20025;-80
2021/07/18 01:07:19;;;;;;;7.80;4.70;;;;;;;13.80;100.00;102486.78;5211380;28;20182;-81
2021/07/18 01:10:01;;;;;;;6.38;3.90;;;;;;;13.74;100.00;102478.28;5211302;28;20112;-80
2021/07/18 01:12:32;;;;;;;10.20;4.72;;;;;;;13.73;100.00;102481.13;5211774;28;20480;-80
2021/07/18 01:15:03;;;;;;;6.97;4.15;;;;;;;13.72;100.00;102484.84;5194739;28;20041;-80
2021/07/18 01:17:36;;;;;;;13.60;5.40;;;;;;;13.73;100.00;102486.53;5216886;28;20033;-80
2021/07/18 01:20:13;;;;;;;12.27;5.53;;;;;;;13.70;100.00;102481.41;5217130;28;20116;-80
2021/07/18 01:22:45;;;;;;;15.50;5.65;;;;;;;13.72;100.00;102480.28;5197961;28;20025;-80
2021/07/18 01:25:34;;;;;;;17.05;5.70;;;;;;;13.80;100.00;102478.69;5218656;28;20048;-80
2021/07/18 01:28:08;;;;;;;14.30;7.13;;;;;;;13.81;100.00;102475.03;5200834;28;20037;-80
2021/07/18 01:30:39;;;;;;;15.18;6.72;;;;;;;13.81;100.00;102470.47;5213299;28;20053;-80
2021/07/18 01:33:10;;;;;;;17.75;7.00;;;;;;;13.81;100.00;102475.03;5211595;28;20036;-81
2021/07/18 01:35:40;;;;;;;13.98;6.80;;;;;;;13.80;100.00;102467.91;5214318;28;20419;-80
2021/07/18 01:38:12;;;;;;;17.08;7.85;;;;;;;13.80;100.00;102467.91;5218101;28;20025;-80
2021/07/18 01:40:43;;;;;;;14.85;6.82;;;;;;;13.78;100.00;102461.81;5216421;28;20549;-80
2021/07/18 01:43:15;;;;;;;20.73;7.68;;;;;;;13.78;100.00;102457.28;5211369;28;20127;-80
2021/07/18 01:45:46;;;;;;;16.90;6.22;;;;;;;13.78;100.00;102461.81;5211245;28;20032;-80
2021/07/18 01:48:16;;;;;;;13.25;6.72;;;;;;;13.83;100.00;102460.38;5217418;28;20439;-80
2021/07/18 01:50:47;;;;;;;13.95;6.65;;;;;;;13.81;100.00;102458.84;5218756;28;20395;-80
2021/07/18 01:53:18;;;;;;;15.50;6.63;;;;;;;13.77;100.00;102462.81;5197297;28;20030;-80
2021/07/18 01:55:53;;;;;;;17.23;7.05;;;;;;;13.74;100.00;102458.56;5200152;28;20021;-80
2021/07/18 01:58:28;;;;;;;18.08;7.15;;;;;;;13.73;100.00;102464.97;5215599;28;20036;-80
2021/07/18 02:00:59;;;;;;;14.70;6.65;;;;;;;13.68;100.00;102467.25;5209908;28;20376;-81
2021/07/18 02:03:29;;;;;;;14.25;7.18;;;;;;;13.64;100.00;102461.28;5224174;28;20426;-80
2021/07/18 02:06:00;;;;;;;15.63;7.22;;;;;;;13.62;100.00;102457.06;5215231;28;20029;-81
2021/07/18 02:08:30;;;;;;;13.50;7.30;;;;;;;13.69;100.00;102447.38;5199908;28;20403;-80
2021/07/18 02:11:01;;;;;;;21.25;8.00;;;;;;;13.77;100.00;102454.72;5210940;28;20043;-80
2021/07/18 02:13:32;;;;;;;16.83;6.75;;;;;;;13.76;100.00;102453.03;5193079;28;20443;-80
2021/07/18 02:16:03;;;;;;;17.67;8.13;;;;;;;13.77;100.00;102454.72;5215450;28;20032;-81
2021/07/18 02:18:33;;;;;;;17.80;7.78;;;;;;;13.74;100.00;102461.25;5217456;28;20103;-80
2021/07/18 02:21:04;;;;;;;19.55;8.20;;;;;;;13.68;100.00;102460.00;5196039;28;20429;-80
2021/07/18 02:23:35;;;;;;;15.98;7.65;;;;;;;13.64;100.00;102452.34;5210154;28;20021;-80
2021/07/18 02:26:06;;;;;;;20.15;8.32;;;;;;;13.65;100.00;102460.28;5212388;28;20026;-80
2021/07/18 02:28:36;;;;;;;13.85;6.50;;;;;;;13.62;100.00;102455.19;5216100;28;20021;-80
2021/07/18 02:31:09;;;;;;;9.10;5.22;;;;;;;13.54;100.00;102462.31;5213849;28;20079;-80
2021/07/18 02:33:39;;;;;;;7.30;3.97;;;;;;;13.39;100.00;102446.59;5211102;28;20027;-80
2021/07/18 02:36:10;;;;;;;9.13;5.03;;;;;;;13.29;100.00;102456.56;5210681;28;20021;-80
2021/07/18 02:38:40;;;;;;;8.88;4.47;;;;;;;13.19;100.00;102450.31;5197277;28;20476;-80
2021/07/18 02:41:12;;;;;;;14.38;5.70;;;;;;;13.12;100.00;102451.88;5215652;28;20403;-80
2021/07/18 02:43:43;;;;;;;10.98;5.80;;;;;;;13.05;100.00;102448.94;5213972;28;20025;-80
2021/07/18 02:46:13;;;;;;;14.80;6.18;;;;;;;13.01;100.00;102452.91;5193127;28;20087;-80
2021/07/18 02:48:44;;;;;;;18.45;8.32;;;;;;;12.98;100.00;102450.47;5194504;28;20052;-80
2021/07/18 02:51:15;;;;;;;16.35;7.90;;;;;;;12.95;100.00;102446.25;5214914;28;20032;-80
2021/07/18 02:53:45;;;;;;;13.85;6.97;;;;;;;12.91;100.00;102455.59;5216409;28;20029;-80
2021/07/18 02:56:16;;;;;;;18.13;7.78;;;;;;;12.89;100.00;102452.16;5216593;28;20032;-80
2021/07/18 02:58:46;;;;;;;15.82;7.60;;;;;;;12.86;100.00;102449.78;5216578;28;20454;-80
2021/07/18 03:01:17;;;;;;;19.13;7.78;;;;;;;12.80;100.00;102449.47;5210227;28;20029;-80
2021/07/18 03:03:48;;;;;;;17.77;8.18;;;;;;;12.76;100.00;102440.84;5222595;28;20479;-80
2021/07/18 03:06:19;;;;;;;15.30;7.50;;;;;;;12.73;100.00;102448.34;5211531;28;20132;-80
2021/07/18 03:08:50;;;;;;;27.60;8.50;;;;;;;12.69;100.00;102448.63;5198390;28;20112;-80
2021/07/18 03:11:20;;;;;;;15.43;7.82;;;;;;;12.66;100.00;102446.25;5212487;28;20032;-80
2021/07/18 03:13:51;;;;;;;14.07;8.10;;;;;;;12.63;100.00;102442.97;5209566;28;20166;-80
2021/07/18 03:16:21;;;;;;;21.10;8.50;;;;;;;12.63;100.00;102451.88;5212054;28;20124;-80
2021/07/18 03:18:52;;;;;;;18.42;7.82;;;;;;;12.60;100.00;102451.31;5216553;28;20033;-80
2021/07/18 03:21:22;;;;;;;13.13;7.07;;;;;;;12.57;100.00;102446.22;5213908;28;20614;-81
2021/07/18 03:23:53;;;;;;;21.73;9.82;;;;;;;12.50;100.00;102445.94;5191800;28;20554;-80
2021/07/18 03:26:23;;;;;;;17.48;8.23;;;;;;;12.48;100.00;102450.59;5192392;28;20033;-80
2021/07/18 03:28:54;;;;;;;27.98;10.93;;;;;;;12.47;100.00;102448.91;5215367;28;20104;-80
2021/07/18 03:31:25;;;;;;;22.70;9.63;;;;;;;12.46;100.00;102457.13;5214416;28;20033;-80
2021/07/18 03:33:55;;;;;;;25.05;9.45;;;;;;;12.45;100.00;102453.59;5211439;28;20032;-80
2021/07/18 03:36:26;;;;;;;28.45;9.45;;;;;;;12.44;100.00;102454.56;5209370;28;20110;-80
2021/07/18 03:38:57;;;;;;;22.23;8.95;;;;;;;12.42;100.00;102453.84;5194701;28;20400;-80
2021/07/18 03:41:27;;;;;;;16.48;8.10;;;;;;;12.40;100.00;102453.16;5215697;28;20104;-81
2021/07/18 03:43:58;;;;;;;17.90;8.13;;;;;;;12.36;100.00;102452.56;5213462;28;20025;-80
2021/07/18 03:46:29;;;;;;;17.63;7.75;;;;;;;12.32;100.00;102453.84;5209519;28;20032;-80
2021/07/18 03:48:59;;;;;;;18.58;8.88;;;;;;;12.31;100.00;102454.84;5209635;28;20028;-80
2021/07/18 03:51:30;;;;;;;22.50;8.60;;;;;;;12.30;100.00;102449.56;5214520;28;20037;-81
2021/07/18 03:54:01;;;;;;;16.13;7.75;;;;;;;12.31;100.00;102448.59;5215385;28;20032;-81
2021/07/18 03:56:31;;;;;;;14.95;7.60;;;;;;;12.32;100.00;102447.59;5204023;28;20089;-80
2021/07/18 03:59:02;;;;;;;18.48;6.97;;;;;;;12.30;100.00;102445.06;5214413;28;20118;-81
2021/07/18 04:01:32;;;;;;;21.08;9.02;;;;;;;12.28;100.00;102447.03;5210757;28;20037;-80
2021/07/18 04:04:03;;;;;;;22.55;8.68;;;;;;;12.31;100.00;102443.22;5219657;28;20029;-81
2021/07/18 04:06:33;;;;;;;18.98;8.70;;;;;;;12.33;100.00;102441.22;5202370;28;20068;-80
2021/07/18 04:09:04;;;;;;;18.63;8.55;;;;;;;12.35;100.00;102445.50;5214267;28;20032;-80
2021/07/18 04:11:34;;;;;;;17.70;6.97;;;;;;;12.39;100.00;102444.22;5215906;28;20406;-80
2021/07/18 04:14:05;;;;;;;18.75;8.60;;;;;;;12.38;100.00;102452.44;5208894;28;20078;-81
2021/07/18 04:16:35;;;;;;;20.58;7.90;;;;;;;12.38;100.00;102450.59;5209631;28;20025;-81
2021/07/18 04:19:06;;;;;;;18.38;8.32;;;;;;;12.42;100.00;102445.78;5213502;28;20025;-81
2021/07/18 04:21:36;;;;;;;15.93;7.93;;;;;;;12.46;100.00;102441.81;5214910;28;20503;-81
2021/07/18 04:24:07;;;;;;;18.80;7.80;;;;;;;12.51;100.00;102449.50;5211242;28;20403;-80
2021/07/18 04:26:37;;;;;;;18.75;8.07;;;;;;;12.57;100.00;102443.53;5192116;28;20115;-81
2021/07/18 04:29:08;;;;;;;16.65;8.10;;;;;;;12.64;100.00;102445.50;5210510;28;20546;-81
2021/07/18 04:31:38;;;;;;;19.70;7.40;;;;;;;12.64;100.00;102441.97;5215100;28;20029;-81
2021/07/18 04:34:09;;;;;;;17.33;8.75;;;;;;;12.67;100.00;102437.16;5167810;28;20033;-81
2021/07/18 04:36:39;;;;;;;17.63;8.52;;;;;;;12.75;100.00;102452.63;5215145;28;20029;-80
2021/07/18 04:39:10;;;;;;;16.77;7.40;;;;;;;12.81;100.00;102443.97;5196087;28;20119;-81
2021/07/18 04:41:40;;;;;;;14.73;7.53;;;;;;;12.88;100.00;102449.63;5209063;28;20024;-81
2021/07/18 04:44:11;;;;;;;19.73;7.70;;;;;;;12.94;100.00;102455.28;5211838;28;20037;-81
2021/07/18 04:46:41;;;;;;;19.17;8.68;;;;;;;13.01;100.00;102458.28;5184650;28;20519;-81
2021/07/18 04:49:12;;;;;;;15.57;8.00;;;;;;;13.06;100.00;102452.47;5199146;28;20040;-81
2021/07/18 04:51:42;;;;;;;17.38;7.38;;;;;;;13.14;100.00;102441.81;5180842;28;20088;-80
2021/07/18 04:54:13;;;;;;;18.80;9.23;;;;;;;13.24;100.00;102458.00;5212565;28;20052;-81
2021/07/18 04:56:44;;;;;;;17.95;8.95;;;;;;;13.35;100.00;102460.50;5215829;28;20040;-81
2021/07/18 04:59:14;;;;;;;15.15;7.55;;;;;;;13.47;100.00;102459.38;5217535;28;20115;-81
2021/07/18 05:01:45;;;;;;;17.02;7.88;;;;;;;13.54;100.00;102463.16;5217059;28;20028;-81
2021/07/18 05:04:15;;;;;;;20.38;7.95;;;;;;;13.63;100.00;102464.13;5207804;28;20032;-81
2021/07/18 05:06:46;;;;;;;15.98;7.63;;;;;;;13.72;100.00;102463.25;5210499;28;20080;-80
2021/07/18 05:09:16;;;;;;;19.27;8.27;;;;;;;13.82;100.00;102474.00;5217194;28;20043;-81
2021/07/18 05:11:47;;;;;;;15.13;8.38;;;;;;;13.91;100.00;102463.19;5206535;28;20101;-81
2021/07/18 05:14:17;;;;;;;17.13;9.00;;;;;;;14.05;100.00;102461.81;5217248;28;20048;-81
2021/07/18 05:16:48;;;;;;;29.13;13.95;;;;;;;14.30;100.00;102462.13;5218680;28;20095;-81
2021/07/18 05:19:18;;;;;;;34.13;13.98;;;;;;;14.43;100.00;102463.44;5213134;28;20036;-81
2021/07/18 05:21:48;;;;;;;33.25;15.05;;;;;;;14.61;100.00;102470.75;5194351;28;20039;-81
2021/07/18 05:24:19;;;;;;;32.95;14.93;;;;;;;14.79;100.00;102458.09;5225608;28;20116;-81
2021/07/18 05:26:49;;;;;;;33.00;15.43;;;;;;;14.95;100.00;102463.63;5211866;28;20065;-81
2021/07/18 05:29:20;;;;;;;30.77;15.15;;;;;;;15.19;100.00;102463.00;5212154;28;20082;-81
2021/07/18 05:31:51;;;;;;;25.20;14.68;;;;;;;15.71;100.00;102464.88;5217963;28;20032;-81
2021/07/18 05:34:21;;;;;;;24.90;12.20;;;;;;;16.79;100.00;102465.97;5204807;28;20034;-82
2021/07/18 05:36:52;;;;;;;19.10;10.38;;;;;;;18.65;100.00;102465.59;5218449;28;20033;-81
2021/07/18 05:39:22;;;;;;;15.57;9.25;;;;;;;20.01;100.00;102470.97;5198872;28;20115;-81
2021/07/18 05:41:53;;;;;;;13.85;8.10;;;;;;;20.89;100.00;102475.38;5213179;28;20372;-81
2021/07/18 05:44:23;;;;;;;13.80;8.20;;;;;;;22.05;100.00;102466.78;5211690;28;20499;-81
2021/07/18 05:46:54;;;;;;;13.45;6.82;;;;;;;22.41;100.00;102467.38;5215960;28;20486;-81
2021/07/18 05:49:24;;;;;;;14.20;6.88;;;;;;;23.39;100.00;102469.56;5198609;28;20077;-81
2021/07/18 05:51:55;;;;;;;13.43;7.18;;;;;;;23.90;100.00;102474.38;5214956;28;20499;-81
2021/07/18 05:54:25;;;;;;;13.02;7.15;;;;;;;24.01;100.00;102485.50;5193009;28;20044;-81
2021/07/18 05:56:56;;;;;;;15.82;7.15;;;;;;;24.56;100.00;102486.97;5213062;28;20108;-81
2021/07/18 05:59:26;;;;;;;14.27;6.60;;;;;;;24.82;100.00;102489.53;5198558;28;20037;-81
2021/07/18 06:01:57;;;;;;;10.57;5.80;;;;;;;24.79;100.00;102490.81;5204924;28;20097;-82
2021/07/18 06:04:28;;;;;;;10.38;5.88;;;;;;;25.58;100.00;102497.59;5223928;28;20029;-81
2021/07/18 06:06:58;;;;;;;14.25;6.57;;;;;;;26.02;100.00;102487.41;5191526;28;20442;-82
2021/07/18 06:09:28;;;;;;;10.68;6.57;;;;;;;25.74;100.00;102490.66;5214665;28;20034;-81
2021/07/18 06:11:59;;;;;;;12.77;6.25;;;;;;;25.36;100.00;102492.75;5198907;28;20113;-82
2021/07/18 06:14:30;;;;;;;12.05;6.30;;;;;;;26.06;100.00;102488.66;5213861;28;20400;-81
2021/07/18 06:17:00;;;;;;;9.93;6.40;;;;;;;25.60;100.00;102491.84;5211293;28;20031;-81
2021/07/18 06:19:30;;;;;;;9.77;5.43;;;;;;;27.00;94.07;102491.78;5211622;28;20031;-81
2021/07/18 06:22:01;;;;;;;12.63;7.38;;;;;;;26.02;100.00;102497.59;5217147;28;20083;-82
2021/07/18 06:24:32;;;;;;;10.88;5.70;;;;;;;26.71;100.00;102492.66;5216395;28;20041;-81
2021/07/18 06:27:03;;;;;;;10.98;6.50;;;;;;;26.93;83.28;102492.97;5210660;28;20025;-82
2021/07/18 06:29:34;;;;;;;9.57;6.47;;;;;;;26.11;100.00;102487.13;5192165;28;20033;-81
2021/07/18 06:32:06;;;;;;;12.73;5.78;;;;;;;26.70;100.00;102489.06;5198791;28;20083;-81
2021/07/18 06:34:36;;;;;;;9.00;6.22;;;;;;;25.62;100.00;102499.91;5204744;28;20053;-82
2021/07/18 06:37:07;;;;;;;9.57;5.32;;;;;;;26.97;97.26;102494.19;5215569;28;20561;-81
2021/07/18 06:39:37;;;;;;;9.00;4.88;;;;;;;26.35;100.00;102486.97;5215566;28;20451;-81
2021/07/18 06:42:08;;;;;;;11.07;5.18;;;;;;;26.04;100.00;102489.94;5213507;28;20025;-81
2021/07/18 06:44:38;;;;;;;11.27;5.80;;;;;;;25.70;100.00;102491.34;5210228;28;20124;-81
2021/07/18 06:47:09;;;;;;;8.52;5.47;;;;;;;25.65;100.00;102496.69;5212305;28;20503;-81
2021/07/18 06:49:39;;;;;;;9.65;4.90;;;;;;;25.34;100.00;102490.22;5202186;28;20030;-81
2021/07/18 06:52:11;;;;;;;10.50;5.75;;;;;;;24.72;100.00;102486.44;5215165;28;20039;-81
2021/07/18 06:54:41;;;;;;;10.00;5.95;;;;;;;23.94;100.00;102486.56;5217285;28;20079;-82
2021/07/18 06:57:12;;;;;;;9.45;5.28;;;;;;;23.60;100.00;102480.31;5205929;28;20033;-81
2021/07/18 06:59:42;;;;;;;10.27;5.10;;;;;;;23.49;100.00;102484.56;5215381;28;20033;-81
2021/07/18 07:02:13;;;;;;;8.20;4.88;;;;;;;22.96;100.00;102484.53;5183504;28;20021;-81
2021/07/18 07:04:44;;;;;;;12.52;6.07;;;;;;;22.61;100.00;102478.34;5214181;28;20030;-81
2021/07/18 07:07:14;;;;;;;10.85;5.85;;;;;;;22.23;100.00;102480.75;5206258;28;20033;-81
2021/07/18 07:09:45;;;;;;;10.50;4.57;;;;;;;22.18;100.00;102475.88;5193879;28;20083;-81
2021/07/18 07:12:15;;;;;;;8.80;4.18;;;;;;;22.21;100.00;102474.66;5220873;28;20091;-81
2021/07/18 07:14:46;;;;;;;8.80;4.90;;;;;;;22.08;100.00;102471.81;5211099;28;20029;-81
2021/07/18 07:17:16;;;;;;;9.93;5.43;;;;;;;22.35;100.00;102472.81;5215689;28;20112;-81
2021/07/18 07:19:47;;;;;;;8.05;4.88;;;;;;;22.40;100.00;102476.63;5215104;28;20052;-81
2021/07/18 07:22:17;;;;;;;8.40;4.18;;;;;;;22.47;100.00;102472.00;5209669;28;20025;-81
2021/07/18 07:24:48;;;;;;;6.80;4.40;;;;;;;22.54;100.00;102472.03;5209652;28;20095;-81
2021/07/18 07:27:18;;;;;;;9.63;3.60;;;;;;;22.68;100.00;102475.63;5197924;28;20112;-81
2021/07/18 07:29:49;;;;;;;5.88;3.30;;;;;;;22.77;100.00;102484.50;5196878;28;20120;-81
2021/07/18 07:32:19;;;;;;;8.85;4.50;;;;;;;22.64;100.00;102477.94;5211602;28;20036;-81
2021/07/18 07:34:50;;;;;;;9.00;3.10;;;;;;;22.80;100.00;102478.63;5209553;28;20025;-81
2021/07/18 07:37:24;;;;;;;8.55;4.07;;;;;;;22.65;100.00;102479.63;5212947;28;20472;-81
2021/07/18 07:39:55;;;;;;;9.93;3.33;;;;;;;22.55;100.00;102473.72;5214925;28;20447;-81
2021/07/18 07:42:25;;;;;;;10.75;3.78;;;;;;;22.65;100.00;102467.84;5214205;28;20491;-81
2021/07/18 07:44:56;;;;;;;9.70;3.67;;;;;;;22.92;100.00;102468.75;5191825;28;20044;-81
2021/07/18 07:47:26;;;;;;;4.30;2.15;;;;;;;23.04;100.00;102477.16;5209544;28;20028;-81
2021/07/18 07:49:57;;;;;;;6.25;2.90;;;;;;;23.43;100.00;102477.16;5214680;28;20057;-81
2021/07/18 07:52:28;;;;;;;10.18;2.65;;;;;;;23.36;100.00;102478.25;5215360;28;20426;-81
2021/07/18 07:54:58;;;;;;;6.38;2.75;;;;;;;23.38;100.00;102476.13;5210775;28;20025;-81
2021/07/18 07:57:29;;;;;;;6.03;2.53;;;;;;;23.63;100.00;102473.56;5209647;28;20033;-81
2021/07/18 07:59:59;;;;;;;8.65;3.00;;;;;;;23.65;100.00;102474.22;5194497;28;20100;-81
2021/07/18 08:02:30;;;;;;;6.10;3.17;;;;;;;23.70;100.00;102467.06;5218416;28;20062;-81
2021/07/18 08:05:00;;;;;;;7.38;2.70;;;;;;;23.91;100.00;102468.66;5177777;28;20030;-81
2021/07/18 08:07:31;;;;;;;7.65;2.20;;;;;;;24.25;100.00;102477.63;5190995;28;20064;-80
2021/07/18 08:10:06;;;;;;;7.85;2.28;;;;;;;24.35;100.00;102471.63;5208327;28;20048;-80
2021/07/18 08:12:37;;;;;;;;;;;;;;;24.46;100.00;102471.00;5215008;28;20457;-80
2021/07/18 08:15:10;;;;;;;3.53;2.25;;;;;;;24.31;100.00;102465.75;5197807;28;20003;-80
2021/07/18 08:17:42;;;;;;;5.15;2.38;;;;;;;24.44;100.00;102467.63;5196529;28;20029;-80
2021/07/18 08:20:16;;;;;;;5.38;2.05;;;;;;;24.34;100.00;102458.97;5211987;28;20116;-80
2021/07/18 08:22:48;;;;;;;2.97;2.37;;;;;;;24.44;100.00;102467.63;5215235;28;20076;-80
2021/07/18 08:25:21;;;;;;;4.18;2.20;;;;;;;24.68;100.00;102466.00;5219513;28;20403;-80
2021/07/18 08:27:52;;;;;;;7.78;2.20;;;;;;;24.76;100.00;102471.22;5219192;28;20021;-80
2021/07/18 08:30:24;;;;;;;5.57;2.25;;;;;;;24.61;100.00;102456.97;5194942;28;20029;-80
2021/07/18 08:32:54;;;;;;;10.40;2.25;;;;;;;24.73;100.00;102458.78;5212997;28;20463;-80
2021/07/18 08:35:25;;;;;;;6.03;2.00;;;;;;;25.02;100.00;102462.78;5200430;28;20112;-80
2021/07/18 08:37:55;;;;;;;4.60;1.90;;;;;;;24.81;100.00;102452.19;5219154;28;20025;-80
2021/07/18 08:40:26;;;;;;;4.22;2.08;;;;;;;24.99;100.00;102460.47;5214256;28;20017;-80
2021/07/18 08:42:57;;;;;;;2.95;1.85;;;;;;;25.17;100.00;102450.66;5195138;28;20138;-80
2021/07/18 08:45:27;;;;;;;7.10;2.13;;;;;;;25.42;100.00;102448.72;5215128;28;20029;-80
2021/07/18 08:47:58;;;;;;;5.43;2.65;;;;;;;25.30;100.00;102445.91;5201856;28;20041;-80
2021/07/18 08:50:29;;;;;;;3.80;2.47;;;;;;;25.41;100.00;102433.31;5217026;28;20032;-80
2021/07/18 08:53:00;;;;;;;3.00;1.90;;;;;;;25.12;100.00;102450.50;5212010;28;20032;-80
2021/07/18 08:55:30;;;;;;;4.97;2.55;;;;;;;25.44;100.00;102435.59;5195191;28;20037;-80
2021/07/18 08:58:01;;;;;;;3.42;1.77;;;;;;;25.36;100.00;102449.63;5215812;28;20032;-80
2021/07/18 09:00:32;;;;;;;5.53;2.35;;;;;;;25.37;100.00;102442.25;5211608;28;20033;-80
2021/07/18 09:03:03;;;;;;;4.85;2.40;;;;;;;25.32;100.00;102445.66;5225123;28;20064;-80
2021/07/18 09:05:33;;;;;;;3.05;1.75;;;;;;;25.55;100.00;102447.72;5219767;28;20041;-80
2021/07/18 09:08:06;;;;;;;6.57;2.55;;;;;;;25.80;100.00;102434.81;5198682;28;20108;-80
2021/07/18 09:10:37;;;;;;;4.88;2.28;;;;;;;25.80;100.00;102426.56;5206941;28;20025;-80
2021/07/18 09:13:11;;;;;;;3.95;2.00;;;;;;;25.95;100.00;102431.66;5199713;28;20489;-80
2021/07/18 09:15:50;;;;;;;10.90;2.95;;;;;;;26.21;100.00;102427.75;5212037;28;20032;-80
2021/07/18 09:18:23;;;;;;;5.30;2.05;;;;;;;26.28;100.00;102430.38;5210938;28;20029;-80
2021/07/18 09:20:56;;;;;;;3.75;1.83;;;;;;;26.04;100.00;102430.28;5213775;28;20028;-80
2021/07/18 09:23:28;;;;;;;14.77;3.55;;;;;;;26.32;100.00;102437.09;5211951;28;20021;-80
2021/07/18 09:26:19;;;;;;;4.50;1.73;;;;;;;26.50;100.00;102431.56;5214291;28;20400;-80
2021/07/18 09:28:51;;;;;;;3.83;2.50;;;;;;;26.56;100.00;102440.81;5212791;28;20387;-80
2021/07/18 09:31:30;;;;;;;5.45;2.40;;;;;;;26.55;100.00;102436.38;5210961;28;20032;-80
2021/07/18 09:34:12;;;;;;;7.47;2.17;;;;;;;26.47;100.00;102434.81;5214130;28;20468;-80
2021/07/18 09:36:42;;;;;;;3.92;1.98;;;;;;;26.37;100.00;102439.16;5200244;28;20021;-80
2021/07/18 09:39:13;;;;;;;4.18;2.15;;;;;;;26.47;100.00;102434.81;5216769;28;20028;-81
2021/07/18 09:41:45;;;;;;;5.28;2.33;;;;;;;26.76;100.00;102432.25;5204985;28;20032;-80
2021/07/18 09:44:15;;;;;;;5.07;2.03;;;;;;;26.70;100.00;102436.75;5183350;28;20025;-80
2021/07/18 09:46:46;;;;;;;3.75;2.13;;;;;;;26.69;100.00;102437.84;5214257;28;20118;-80
2021/07/18 09:49:31;;;;;;;5.53;2.30;;;;;;;26.82;100.00;102432.13;5220895;28;20025;-81
2021/07/18 09:52:22;;;;;;;3.40;2.33;;;;;;;26.77;100.00;102433.94;5186938;28;20052;-81
2021/07/18 09:54:54;;;;;;;3.60;2.00;;;;;;;27.16;100.00;102426.09;5204500;28;20029;-80
2021/07/18 09:57:29;;;;;;;4.13;1.73;;;;;;;27.23;100.00;102421.31;5211479;28;20082;-80
2021/07/18 09:59:59;;;;;;;6.72;2.42;;;;;;;27.15;100.00;102416.16;5212051;28;20029;-80
2021/07/18 10:02:31;;;;;;;5.82;1.95;;;;;;;27.48;93.25;102418.28;5221383;28;20017;-81
2021/07/18 10:05:03;;;;;;;5.32;2.40;;;;;;;27.19;100.00;102425.63;5206943;28;20029;-81
2021/07/18 10:07:35;;;;;;;4.00;2.10;;;;;;;27.33;100.00;102416.88;5186600;28;20025;-80
2021/07/18 10:10:06;;;;;;;3.17;2.10;;;;;;;27.35;100.00;102416.63;5216117;28;20411;-81
2021/07/18 10:12:37;;;;;;;4.43;1.80;;;;;;;27.45;93.76;102416.84;5211595;28;20060;-80
2021/07/18 10:15:08;;;;;;;3.70;2.40;;;;;;;27.32;84.56;102409.69;5211051;28;20503;-81
2021/07/18 10:17:39;;;;;;;4.28;2.58;;;;;;;27.42;97.00;102411.84;5198114;28;20091;-81
2021/07/18 10:20:10;;;;;;;5.80;2.38;;;;;;;27.73;86.62;102401.50;5216136;28;20026;-81
2021/07/18 10:22:43;;;;;;;4.00;2.10;;;;;;;27.65;91.03;102407.34;5213499;28;20167;-80
2021/07/18 10:25:15;;;;;;;4.60;2.28;;;;;;;27.44;83.17;102409.66;5211273;28;20020;-81
2021/07/18 10:27:47;;;;;;;2.53;1.88;;;;;;;27.74;90.47;102398.50;5212488;28;20049;-81
2021/07/18 10:30:20;;;;;;;5.20;2.38;;;;;;;27.74;90.61;102394.91;5215874;28;20443;-80
2021/07/18 10:32:52;;;;;;;6.18;2.53;;;;;;;27.55;84.49;102400.53;5198779;28;20399;-81
2021/07/18 10:35:23;;;;;;;2.70;1.85;;;;;;;27.57;84.15;102400.31;5211569;28;20025;-82
2021/07/18 10:37:54;;;;;;;6.13;2.70;;;;;;;27.84;81.32;102395.94;5210859;28;20064;-81
2021/07/18 10:40:25;;;;;;;4.00;2.50;;;;;;;27.98;86.40;102396.50;5214106;28;20056;-81
2021/07/18 10:42:56;;;;;;;6.05;2.53;;;;;;;27.91;91.73;102392.19;5216759;28;22075;-81
2021/07/18 10:45:27;;;;;;;6.47;2.47;;;;;;;28.17;87.46;102393.56;5195474;28;20048;-81
2021/07/18 10:48:05;;;;;;;4.97;2.50;;;;;;;28.12;80.72;102386.84;5210877;28;20035;-81
2021/07/18 10:50:42;;;;;;;5.47;2.72;;;;;;;27.86;88.68;102387.41;5193126;28;20438;-81
2021/07/18 10:53:16;;;;;;;4.70;2.65;;;;;;;28.06;87.64;102386.97;5198776;28;20036;-81
2021/07/18 10:55:49;;;;;;;7.57;3.00;;;;;;;28.23;82.42;102387.88;5216393;28;20099;-81
2021/07/18 10:58:38;;;;;;;6.35;2.70;;;;;;;28.33;86.58;102390.00;5212471;28;20029;-81
2021/07/18 11:01:09;;;;;;;7.53;2.70;;;;;;;28.44;94.80;102389.13;5208893;28;20040;-80
2021/07/18 11:03:41;;;;;;;5.57;2.40;;;;;;;28.64;89.60;102388.63;5223714;28;20115;-80
2021/07/18 11:06:28;;;;;;;6.75;3.53;;;;;;;28.76;83.83;102389.38;5185330;28;20112;-81
2021/07/18 11:09:11;;;;;;;5.75;3.53;;;;;;;28.72;82.94;102379.94;5216076;28;20029;-81
2021/07/18 11:11:51;;;;;;;5.90;3.10;;;;;;;28.73;85.37;102378.84;5216176;28;20016;-81
2021/07/18 11:14:23;;;;;;;11.05;3.45;;;;;;;28.68;82.03;102372.41;5211604;28;20032;-82
2021/07/18 11:16:57;;;;;;;4.70;2.80;;;;;;;28.66;86.11;102380.91;5210033;28;20036;-81
2021/07/18 11:19:34;;;;;;;;;;;;;;;28.56;85.16;102372.47;5211532;28;20056;-82
2021/07/18 11:22:09;;;;;;;5.70;2.90;;;;;;;28.68;82.83;102369.66;5198237;28;19916;-82
2021/07/18 11:24:53;;;;;;;3.65;2.60;;;;;;;28.58;91.66;102375.84;5202784;28;20036;-81
2021/07/18 11:27:28;;;;;;;5.40;3.60;;;;;;;28.38;85.51;102362.50;5214132;28;20104;-81
2021/07/18 11:30:36;;;;;;;8.02;2.92;;;;;;;28.57;80.88;102366.72;5215077;28;20079;-81
2021/07/18 11:33:26;;;;;;;5.05;2.65;;;;;;;28.48;85.01;102359.94;5215758;28;20029;-81
2021/07/18 11:35:57;;;;;;;6.88;2.90;;;;;;;28.83;84.83;102356.09;5215644;28;20409;-81